Jack T. Moran — WDI7011 — position and weather

sailwx.info

Track history (hours):
 
Tides and Currents Weather Stations Pressure Air Temp Water Temp Dewpoint Dewpoint Depression Visibility Wind Speed Wind Dir Waves Ship Positions

Jack T. Moran

Owner: Moran Towing Corporation, New Canaan, CT. More information available from US FCC via Universal Licensing System and Coast Guard Vessel Documentation Center.

Last reported at 2018-Jan-23 19:30 UTC. Time now 2018-Jan-23 19:44 UTC.
Position N 36°50' W 076°16'.

Length 28 m; draft 5 m.

Type: Tug. MMSI: 367724460.

Date/timePositionNaut miles runAvg speedWind from/ knotsBaromVisibWave heightAir tempDewpointWater temp
2018-Jan-23 19:30N 36°50' W 076°16'0 0.0
2018-Jan-23 19:00N 36°50' W 076°16'0 0.0
2018-Jan-23 18:28N 36°50' W 076°16'0 0.0
2018-Jan-23 18:01N 36°50' W 076°16'3 5.5
2018-Jan-23 17:28N 36°52' W 076°20'0 0.5
2018-Jan-23 16:31N 36°52' W 076°19'0 1.6
2018-Jan-23 16:30N 36°52' W 076°19'4 6.6
2018-Jan-23 15:54N 36°56' W 076°20'0 1.0
2018-Jan-23 15:30N 36°56' W 076°20'1 0.7
2018-Jan-23 13:53N 36°54' W 076°20'2 4.6
2018-Jan-23 13:31N 36°53' W 076°20'0 0.0
2018-Jan-23 13:01N 36°53' W 076°20'0 0.0
2018-Jan-23 12:31N 36°53' W 076°20'0 0.0
2018-Jan-23 12:01N 36°53' W 076°20'0 0.0
2018-Jan-23 11:30N 36°53' W 076°20'1 1.6
2018-Jan-23 10:39N 36°52' W 076°19'0 1.8
2018-Jan-23 10:27N 36°52' W 076°19'1 0.8
2018-Jan-23 09:12N 36°53' W 076°20'0 0.0
2018-Jan-23 09:00N 36°53' W 076°20'2 3.9
2018-Jan-23 08:30N 36°51' W 076°18'3 6.4
2018-Jan-23 08:01N 36°48' W 076°17'0 0.2
2018-Jan-23 07:30N 36°48' W 076°17'0 0.1
2018-Jan-23 07:01N 36°48' W 076°17'0 0.0
2018-Jan-23 06:31N 36°48' W 076°17'0 0.0
2018-Jan-23 06:01N 36°48' W 076°17'0 0.0
2018-Jan-23 05:31N 36°48' W 076°17'0 0.1
2018-Jan-23 05:01N 36°48' W 076°17'1 1.7
2018-Jan-23 04:30N 36°49' W 076°17'0 0.2
2018-Jan-23 04:00N 36°49' W 076°18'2 4.2
2018-Jan-23 03:31N 36°51' W 076°18'2 4.6
2018-Jan-23 03:00N 36°53' W 076°20'0 0.0
2018-Jan-23 02:29N 36°53' W 076°20'0 0.0
2018-Jan-23 00:46N 36°53' W 076°20'0 0.8
2018-Jan-23 00:30N 36°53' W 076°20'1 1.6
2018-Jan-23 00:00N 36°52' W 076°21'1 1.8
2018-Jan-22 23:31N 36°53' W 076°20'0 0.0
2018-Jan-22 23:00N 36°53' W 076°20'3 6.3
2018-Jan-22 22:30N 36°51' W 076°17'1 1.5
2018-Jan-22 22:00N 36°50' W 076°16'0 0.0
2018-Jan-22 21:30N 36°50' W 076°16'0 0.0
2018-Jan-22 21:01N 36°50' W 076°16'0 0.0
2018-Jan-22 20:31N 36°50' W 076°16'0 0.0
2018-Jan-22 20:01N 36°50' W 076°16'0 0.0
2018-Jan-22 19:30N 36°50' W 076°16'0 0.0
2018-Jan-22 19:01N 36°50' W 076°16'0 0.0
2018-Jan-22 18:31N 36°50' W 076°16'0 0.0
2018-Jan-22 18:01N 36°50' W 076°16'0 0.0
2018-Jan-22 17:31N 36°50' W 076°16'0 0.0
2018-Jan-22 17:00N 36°50' W 076°16'0 0.0
2018-Jan-22 16:31N 36°50' W 076°16'0 0.0
2018-Jan-22 16:00N 36°50' W 076°16'0 0.0
2018-Jan-22 15:30N 36°50' W 076°16'0 0.2
2018-Jan-22 15:00N 36°50' W 076°16'5 2.9
2018-Jan-22 13:20N 36°54' W 076°20'1 4.5
2018-Jan-22 13:00N 36°53' W 076°20'0 0.0
2018-Jan-22 12:30N 36°53' W 076°20'0 0.0
2018-Jan-22 12:01N 36°53' W 076°20'0 0.0
2018-Jan-22 11:30N 36°53' W 076°20'0 0.0
2018-Jan-22 10:50N 36°53' W 076°20'0 0.0
2018-Jan-22 10:31N 36°53' W 076°20'0 0.0
2018-Jan-22 09:58N 36°53' W 076°20'0 0.0
2018-Jan-22 06:21N 36°53' W 076°20'0 0.1
2018-Jan-22 05:04N 36°53' W 076°20'0 6.0
2018-Jan-22 05:00N 36°52' W 076°20'1 1.9
2018-Jan-22 04:27N 36°51' W 076°20'1 0.7
2018-Jan-22 03:41N 36°52' W 076°19'1 5.5
2018-Jan-22 03:30N 36°53' W 076°20'0 0.4
2018-Jan-22 03:00N 36°53' W 076°20'0 0.0
2018-Jan-22 02:31N 36°53' W 076°20'1 1.8
2018-Jan-22 02:00N 36°53' W 076°21'0 0.0
2018-Jan-22 01:30N 36°53' W 076°21'1 1.6
2018-Jan-22 00:58N 36°53' W 076°20'0 0.9
2018-Jan-22 00:30N 36°53' W 076°20'0 0.0
2018-Jan-22 00:00N 36°53' W 076°20'0 0.0
2018-Jan-21 23:31N 36°53' W 076°20'0 0.3
2018-Jan-21 22:29N 36°53' W 076°20'0 0.1
2018-Jan-21 21:55N 36°53' W 076°20'0 0.7
2018-Jan-21 21:30N 36°53' W 076°20'0 0.0
2018-Jan-21 21:01N 36°53' W 076°20'0 0.0
2018-Jan-21 20:30N 36°53' W 076°20'0 0.0
2018-Jan-21 20:00N 36°53' W 076°20'0 0.0
2018-Jan-21 19:29N 36°53' W 076°20'0 0.0
2018-Jan-21 19:00N 36°53' W 076°20'0 0.0
2018-Jan-21 18:30N 36°53' W 076°20'0 0.0
2018-Jan-21 18:00N 36°53' W 076°20'0 0.0
2018-Jan-21 17:30N 36°53' W 076°20'0 0.0
2018-Jan-21 17:01N 36°53' W 076°20'0 0.0
2018-Jan-21 16:31N 36°53' W 076°20'1 1.6
2018-Jan-21 16:01N 36°52' W 076°21'0 0.8
2018-Jan-21 15:29N 36°53' W 076°21'0 0.0
2018-Jan-21 14:52N 36°53' W 076°21'0 0.0
2018-Jan-21 14:30N 36°53' W 076°21'0 0.0
2018-Jan-21 14:00N 36°53' W 076°21'0 0.0
2018-Jan-21 13:31N 36°53' W 076°21'0 0.0
2018-Jan-21 12:59N 36°53' W 076°21'0 0.5
2018-Jan-21 12:30N 36°53' W 076°21'1 1.7
2018-Jan-21 11:56N 36°53' W 076°20'1 3.0
2018-Jan-21 11:30N 36°52' W 076°19'0 0.3
2018-Jan-21 11:00N 36°51' W 076°19'0 0.0
2018-Jan-21 10:31N 36°51' W 076°19'0 0.0
2018-Jan-21 10:01N 36°51' W 076°19'0 0.0
2018-Jan-21 09:30N 36°51' W 076°19'0 0.0
2018-Jan-21 09:01N 36°51' W 076°19'0 0.0
2018-Jan-21 08:31N 36°51' W 076°19'0 0.0
2018-Jan-21 08:00N 36°51' W 076°19'0 0.0
2018-Jan-21 07:31N 36°51' W 076°19'0 0.0
2018-Jan-21 07:00N 36°51' W 076°19'0 0.0
2018-Jan-21 06:31N 36°51' W 076°19'0 0.0
2018-Jan-21 06:00N 36°51' W 076°19'0 0.0
2018-Jan-21 05:31N 36°51' W 076°19'4 7.4
2018-Jan-21 05:00N 36°48' W 076°17'0 0.1
2018-Jan-21 04:30N 36°48' W 076°17'0 0.0
2018-Jan-21 04:01N 36°48' W 076°17'2 3.7
2018-Jan-21 03:30N 36°50' W 076°18'2 3.8
2018-Jan-21 03:00N 36°51' W 076°19'0 0.9
2018-Jan-21 02:30N 36°52' W 076°19'1 1.0
2018-Jan-21 02:00N 36°51' W 076°20'0 0.0
2018-Jan-21 01:30N 36°51' W 076°20'0 0.0
2018-Jan-21 01:00N 36°51' W 076°20'2 3.8
2018-Jan-21 00:31N 36°51' W 076°18'1 2.1
2018-Jan-21 00:00N 36°50' W 076°16'0 0.0
2018-Jan-20 23:31N 36°50' W 076°16'0 0.0
2018-Jan-20 23:00N 36°50' W 076°16'0 0.0
2018-Jan-20 22:31N 36°50' W 076°16'0 0.0
2018-Jan-20 22:00N 36°50' W 076°16'0 0.0
2018-Jan-20 21:31N 36°50' W 076°16'0 0.0
2018-Jan-20 21:01N 36°50' W 076°16'0 0.0
2018-Jan-20 20:30N 36°50' W 076°16'1 2.8
2018-Jan-20 20:00N 36°49' W 076°17'1 2.6
2018-Jan-20 19:30N 36°48' W 076°17'0 0.0
2018-Jan-20 19:00N 36°48' W 076°17'0 0.1
2018-Jan-20 18:30N 36°48' W 076°17'2 4.8
2018-Jan-20 18:01N 36°50' W 076°17'2 2.1
2018-Jan-20 16:58N 36°51' W 076°19'0 0.0
2018-Jan-20 12:38N 36°51' W 076°19'0 0.0
2018-Jan-20 12:26N 36°51' W 076°19'0 0.0
2018-Jan-20 11:58N 36°51' W 076°19'0 0.0
2018-Jan-20 11:31N 36°51' W 076°19'2 3.0
2018-Jan-20 11:00N 36°53' W 076°20'1 1.2
2018-Jan-20 10:30N 36°52' W 076°21'0 0.3
2018-Jan-20 10:00N 36°52' W 076°21'0 0.0
2018-Jan-20 09:30N 36°52' W 076°21'2 3.8
2018-Jan-20 09:00N 36°52' W 076°19'2 4.6
2018-Jan-20 08:30N 36°50' W 076°16'0 0.0
2018-Jan-20 08:01N 36°50' W 076°16'0 0.0
2018-Jan-20 07:31N 36°50' W 076°16'0 0.0
2018-Jan-20 07:00N 36°50' W 076°16'0 0.0
2018-Jan-20 06:31N 36°50' W 076°16'0 0.0
2018-Jan-20 06:00N 36°50' W 076°16'0 0.0
2018-Jan-20 05:31N 36°50' W 076°16'0 0.0
2018-Jan-20 05:00N 36°50' W 076°16'0 0.0
2018-Jan-20 04:30N 36°50' W 076°16'0 0.0
2018-Jan-20 04:00N 36°50' W 076°16'0 0.7
2018-Jan-20 03:30N 36°50' W 076°17'6 9.8
2018-Jan-20 02:56N 36°55' W 076°20'1 0.9
2018-Jan-20 02:20N 36°56' W 076°20'0 1.3
2018-Jan-20 02:00N 36°56' W 076°20'0 0.3
2018-Jan-20 01:26N 36°56' W 076°20'3 1.0
2018-Jan-19 22:36N 36°53' W 076°20'0 5.1
2018-Jan-19 22:30N 36°53' W 076°20'1 0.9
2018-Jan-19 21:49N 36°53' W 076°21'0 0.1
2018-Jan-19 19:50N 36°53' W 076°21'1 2.9
2018-Jan-19 19:31N 36°53' W 076°20'0 0.0
2018-Jan-19 19:01N 36°53' W 076°20'0 0.0
2018-Jan-19 18:30N 36°53' W 076°20'0 0.0
2018-Jan-19 18:00N 36°53' W 076°20'2 3.3
2018-Jan-19 17:21N 36°55' W 076°20'1 2.3
2018-Jan-19 17:00N 36°54' W 076°20'0 0.5
2018-Jan-19 16:27N 36°55' W 076°20'2 3.5
2018-Jan-19 16:00N 36°56' W 076°20'0 0.9
2018-Jan-19 15:30N 36°56' W 076°20'0 0.0
2018-Jan-19 15:01N 36°56' W 076°20'0 0.0
2018-Jan-19 14:30N 36°56' W 076°20'0 0.0
2018-Jan-19 14:00N 36°56' W 076°20'0 0.0
2018-Jan-19 13:30N 36°56' W 076°20'3 5.5
2018-Jan-19 12:58N 36°53' W 076°20'0 0.3
2018-Jan-19 12:23N 36°53' W 076°20'0 0.1
2018-Jan-19 12:00N 36°53' W 076°20'0 0.0
2018-Jan-19 11:30N 36°53' W 076°20'0 0.0
2018-Jan-19 11:00N 36°53' W 076°20'0 0.0
2018-Jan-19 10:30N 36°53' W 076°20'0 0.0
2018-Jan-19 10:00N 36°53' W 076°20'0 0.0
2018-Jan-19 09:30N 36°53' W 076°20'1 2.7
2018-Jan-19 09:01N 36°51' W 076°20'0 0.7
2018-Jan-19 08:31N 36°51' W 076°19'2 3.2
2018-Jan-19 08:01N 36°51' W 076°18'1 2.1
2018-Jan-19 07:30N 36°50' W 076°16'0 0.0
2018-Jan-19 07:00N 36°50' W 076°16'0 0.0
2018-Jan-19 06:30N 36°50' W 076°16'0 0.0
2018-Jan-19 06:00N 36°50' W 076°16'0 0.0
2018-Jan-19 05:30N 36°50' W 076°16'0 0.0
2018-Jan-19 05:00N 36°50' W 076°16'0 0.0
2018-Jan-19 04:30N 36°50' W 076°16'0 0.0
2018-Jan-19 04:00N 36°50' W 076°16'0 0.0
2018-Jan-19 03:30N 36°50' W 076°16'0 0.0
2018-Jan-19 03:00N 36°50' W 076°16'0 0.0
2018-Jan-19 02:31N 36°50' W 076°16'0 0.0
2018-Jan-19 02:00N 36°50' W 076°16'0 0.0
2018-Jan-19 01:30N 36°50' W 076°16'0 0.0
2018-Jan-19 01:00N 36°50' W 076°16'0 0.6
2018-Jan-19 00:31N 36°50' W 076°17'1 1.5
2018-Jan-19 00:00N 36°51' W 076°18'1 2.7
2018-Jan-18 23:31N 36°51' W 076°19'0 0.6
2018-Jan-18 23:00N 36°51' W 076°19'0 0.0
2018-Jan-18 22:14N 36°51' W 076°19'0 0.0
2018-Jan-18 22:01N 36°51' W 076°19'0 0.0
2018-Jan-18 21:30N 36°51' W 076°19'0 0.0
2018-Jan-18 21:00N 36°51' W 076°19'0 0.0
2018-Jan-18 20:31N 36°51' W 076°19'0 0.0
2018-Jan-18 20:00N 36°51' W 076°19'0 0.0
2018-Jan-18 19:31N 36°51' W 076°19'0 0.0
2018-Jan-18 18:52N 36°51' W 076°19'0 0.0
2018-Jan-18 18:30N 36°51' W 076°19'0 0.0
2018-Jan-18 18:00N 36°51' W 076°19'0 0.0
2018-Jan-18 17:30N 36°51' W 076°19'0 0.0
2018-Jan-18 16:50N 36°51' W 076°19'0 0.0
2018-Jan-18 16:30N 36°51' W 076°19'3 5.9
2018-Jan-18 16:01N 36°49' W 076°17'0 0.3
2018-Jan-18 15:30N 36°49' W 076°17'2 4.0
2018-Jan-18 15:00N 36°51' W 076°18'1 1.9
2018-Jan-18 14:31N 36°51' W 076°19'0 0.0
2018-Jan-18 14:01N 36°51' W 076°19'0 0.0
2018-Jan-18 13:30N 36°51' W 076°19'0 0.0
2018-Jan-18 13:00N 36°51' W 076°19'0 0.0
2018-Jan-18 12:31N 36°51' W 076°19'0 0.0
2018-Jan-18 12:00N 36°51' W 076°19'0 0.0
2018-Jan-18 11:30N 36°51' W 076°19'2 3.8
2018-Jan-18 11:00N 36°53' W 076°21'0 0.1
2018-Jan-18 10:30N 36°53' W 076°21'1 2.5
2018-Jan-18 10:00N 36°54' W 076°20'1 2.4
2018-Jan-18 09:29N 36°53' W 076°21'0 0.2
2018-Jan-18 09:01N 36°53' W 076°21'0 0.0
2018-Jan-18 08:30N 36°53' W 076°21'0 0.0
2018-Jan-18 08:00N 36°53' W 076°21'0 0.0
2018-Jan-18 07:30N 36°53' W 076°21'0 0.0
2018-Jan-18 07:00N 36°53' W 076°21'0 0.0
2018-Jan-18 06:30N 36°53' W 076°21'0 0.0
2018-Jan-18 06:01N 36°53' W 076°21'0 0.0
2018-Jan-18 05:30N 36°53' W 076°21'0 0.0
2018-Jan-18 05:01N 36°53' W 076°21'0 0.0
2018-Jan-18 04:30N 36°53' W 076°21'0 0.0
2018-Jan-18 04:01N 36°53' W 076°21'0 0.0
2018-Jan-18 03:31N 36°53' W 076°21'0 0.0
2018-Jan-18 03:00N 36°53' W 076°21'0 0.0
2018-Jan-18 02:30N 36°53' W 076°21'1 1.6
2018-Jan-18 02:00N 36°53' W 076°20'1 1.7
2018-Jan-18 01:30N 36°53' W 076°21'0 0.0
2018-Jan-18 01:01N 36°53' W 076°21'0 0.2
2018-Jan-17 23:59N 36°53' W 076°21'0 0.0
2018-Jan-17 23:57N 36°53' W 076°21'  
Track history (hours):
 
Tides and Currents Weather Stations Pressure Air Temp Water Temp Dewpoint Dewpoint Depression Visibility Wind Speed Wind Dir Waves Ship Positions

Jack T. Moran

Owner: Moran Towing Corporation, New Canaan, CT. More information available from US FCC via Universal Licensing System and Coast Guard Vessel Documentation Center.

Last reported at 2018-Jan-23 19:30 UTC. Time now 2018-Jan-23 19:44 UTC.
Position N 36°50' W 076°16'.

Length 28 m; draft 5 m.

Type: Tug. MMSI: 367724460.

Date/timePositionNaut miles runAvg speedWind from/ knotsBaromVisibWave heightAir tempDewpointWater temp
2018-Jan-23 19:30N 36°50' W 076°16'0 0.0
2018-Jan-23 19:00N 36°50' W 076°16'0 0.0
2018-Jan-23 18:28N 36°50' W 076°16'0 0.0
2018-Jan-23 18:01N 36°50' W 076°16'3 5.5
2018-Jan-23 17:28N 36°52' W 076°20'0 0.5
2018-Jan-23 16:31N 36°52' W 076°19'0 1.6
2018-Jan-23 16:30N 36°52' W 076°19'4 6.6
2018-Jan-23 15:54N 36°56' W 076°20'0 1.0
2018-Jan-23 15:30N 36°56' W 076°20'1 0.7
2018-Jan-23 13:53N 36°54' W 076°20'2 4.6
2018-Jan-23 13:31N 36°53' W 076°20'0 0.0
2018-Jan-23 13:01N 36°53' W 076°20'0 0.0
2018-Jan-23 12:31N 36°53' W 076°20'0 0.0
2018-Jan-23 12:01N 36°53' W 076°20'0 0.0
2018-Jan-23 11:30N 36°53' W 076°20'1 1.6
2018-Jan-23 10:39N 36°52' W 076°19'0 1.8
2018-Jan-23 10:27N 36°52' W 076°19'1 0.8
2018-Jan-23 09:12N 36°53' W 076°20'0 0.0
2018-Jan-23 09:00N 36°53' W 076°20'2 3.9
2018-Jan-23 08:30N 36°51' W 076°18'3 6.4
2018-Jan-23 08:01N 36°48' W 076°17'0 0.2
2018-Jan-23 07:30N 36°48' W 076°17'0 0.1
2018-Jan-23 07:01N 36°48' W 076°17'0 0.0
2018-Jan-23 06:31N 36°48' W 076°17'0 0.0
2018-Jan-23 06:01N 36°48' W 076°17'0 0.0
2018-Jan-23 05:31N 36°48' W 076°17'0 0.1
2018-Jan-23 05:01N 36°48' W 076°17'1 1.7
2018-Jan-23 04:30N 36°49' W 076°17'0 0.2
2018-Jan-23 04:00N 36°49' W 076°18'2 4.2
2018-Jan-23 03:31N 36°51' W 076°18'2 4.6
2018-Jan-23 03:00N 36°53' W 076°20'0 0.0
2018-Jan-23 02:29N 36°53' W 076°20'0 0.0
2018-Jan-23 00:46N 36°53' W 076°20'0 0.8
2018-Jan-23 00:30N 36°53' W 076°20'1 1.6
2018-Jan-23 00:00N 36°52' W 076°21'1 1.8
2018-Jan-22 23:31N 36°53' W 076°20'0 0.0
2018-Jan-22 23:00N 36°53' W 076°20'3 6.3
2018-Jan-22 22:30N 36°51' W 076°17'1 1.5
2018-Jan-22 22:00N 36°50' W 076°16'0 0.0
2018-Jan-22 21:30N 36°50' W 076°16'0 0.0
2018-Jan-22 21:01N 36°50' W 076°16'0 0.0
2018-Jan-22 20:31N 36°50' W 076°16'0 0.0
2018-Jan-22 20:01N 36°50' W 076°16'0 0.0
2018-Jan-22 19:30N 36°50' W 076°16'0 0.0
2018-Jan-22 19:01N 36°50' W 076°16'0 0.0
2018-Jan-22 18:31N 36°50' W 076°16'0 0.0
2018-Jan-22 18:01N 36°50' W 076°16'0 0.0
2018-Jan-22 17:31N 36°50' W 076°16'0 0.0
2018-Jan-22 17:00N 36°50' W 076°16'0 0.0
2018-Jan-22 16:31N 36°50' W 076°16'0 0.0
2018-Jan-22 16:00N 36°50' W 076°16'0 0.0
2018-Jan-22 15:30N 36°50' W 076°16'0 0.2
2018-Jan-22 15:00N 36°50' W 076°16'5 2.9
2018-Jan-22 13:20N 36°54' W 076°20'1 4.5
2018-Jan-22 13:00N 36°53' W 076°20'0 0.0
2018-Jan-22 12:30N 36°53' W 076°20'0 0.0
2018-Jan-22 12:01N 36°53' W 076°20'0 0.0
2018-Jan-22 11:30N 36°53' W 076°20'0 0.0
2018-Jan-22 10:50N 36°53' W 076°20'0 0.0
2018-Jan-22 10:31N 36°53' W 076°20'0 0.0
2018-Jan-22 09:58N 36°53' W 076°20'0 0.0
2018-Jan-22 06:21N 36°53' W 076°20'0 0.1
2018-Jan-22 05:04N 36°53' W 076°20'0 6.0
2018-Jan-22 05:00N 36°52' W 076°20'1 1.9
2018-Jan-22 04:27N 36°51' W 076°20'1 0.7
2018-Jan-22 03:41N 36°52' W 076°19'1 5.5
2018-Jan-22 03:30N 36°53' W 076°20'0 0.4
2018-Jan-22 03:00N 36°53' W 076°20'0 0.0
2018-Jan-22 02:31N 36°53' W 076°20'1 1.8
2018-Jan-22 02:00N 36°53' W 076°21'0 0.0
2018-Jan-22 01:30N 36°53' W 076°21'1 1.6
2018-Jan-22 00:58N 36°53' W 076°20'0 0.9
2018-Jan-22 00:30N 36°53' W 076°20'0 0.0
2018-Jan-22 00:00N 36°53' W 076°20'0 0.0
2018-Jan-21 23:31N 36°53' W 076°20'0 0.3
2018-Jan-21 22:29N 36°53' W 076°20'0 0.1
2018-Jan-21 21:55N 36°53' W 076°20'0 0.7
2018-Jan-21 21:30N 36°53' W 076°20'0 0.0
2018-Jan-21 21:01N 36°53' W 076°20'0 0.0
2018-Jan-21 20:30N 36°53' W 076°20'0 0.0
2018-Jan-21 20:00N 36°53' W 076°20'0 0.0
2018-Jan-21 19:29N 36°53' W 076°20'0 0.0
2018-Jan-21 19:00N 36°53' W 076°20'0 0.0
2018-Jan-21 18:30N 36°53' W 076°20'0 0.0
2018-Jan-21 18:00N 36°53' W 076°20'0 0.0
2018-Jan-21 17:30N 36°53' W 076°20'0 0.0
2018-Jan-21 17:01N 36°53' W 076°20'0 0.0
2018-Jan-21 16:31N 36°53' W 076°20'1 1.6
2018-Jan-21 16:01N 36°52' W 076°21'0 0.8
2018-Jan-21 15:29N 36°53' W 076°21'0 0.0
2018-Jan-21 14:52N 36°53' W 076°21'0 0.0
2018-Jan-21 14:30N 36°53' W 076°21'0 0.0
2018-Jan-21 14:00N 36°53' W 076°21'0 0.0
2018-Jan-21 13:31N 36°53' W 076°21'0 0.0
2018-Jan-21 12:59N 36°53' W 076°21'0 0.5
2018-Jan-21 12:30N 36°53' W 076°21'1 1.7
2018-Jan-21 11:56N 36°53' W 076°20'1 3.0
2018-Jan-21 11:30N 36°52' W 076°19'0 0.3
2018-Jan-21 11:00N 36°51' W 076°19'0 0.0
2018-Jan-21 10:31N 36°51' W 076°19'0 0.0
2018-Jan-21 10:01N 36°51' W 076°19'0 0.0
2018-Jan-21 09:30N 36°51' W 076°19'0 0.0
2018-Jan-21 09:01N 36°51' W 076°19'0 0.0
2018-Jan-21 08:31N 36°51' W 076°19'0 0.0
2018-Jan-21 08:00N 36°51' W 076°19'0 0.0
2018-Jan-21 07:31N 36°51' W 076°19'0 0.0
2018-Jan-21 07:00N 36°51' W 076°19'0 0.0
2018-Jan-21 06:31N 36°51' W 076°19'0 0.0
2018-Jan-21 06:00N 36°51' W 076°19'0 0.0
2018-Jan-21 05:31N 36°51' W 076°19'4 7.4
2018-Jan-21 05:00N 36°48' W 076°17'0 0.1
2018-Jan-21 04:30N 36°48' W 076°17'0 0.0
2018-Jan-21 04:01N 36°48' W 076°17'2 3.7
2018-Jan-21 03:30N 36°50' W 076°18'2 3.8
2018-Jan-21 03:00N 36°51' W 076°19'0 0.9
2018-Jan-21 02:30N 36°52' W 076°19'1 1.0
2018-Jan-21 02:00N 36°51' W 076°20'0 0.0
2018-Jan-21 01:30N 36°51' W 076°20'0 0.0
2018-Jan-21 01:00N 36°51' W 076°20'2 3.8
2018-Jan-21 00:31N 36°51' W 076°18'1 2.1
2018-Jan-21 00:00N 36°50' W 076°16'0 0.0
2018-Jan-20 23:31N 36°50' W 076°16'0 0.0
2018-Jan-20 23:00N 36°50' W 076°16'0 0.0
2018-Jan-20 22:31N 36°50' W 076°16'0 0.0
2018-Jan-20 22:00N 36°50' W 076°16'0 0.0
2018-Jan-20 21:31N 36°50' W 076°16'0 0.0
2018-Jan-20 21:01N 36°50' W 076°16'0 0.0
2018-Jan-20 20:30N 36°50' W 076°16'1 2.8
2018-Jan-20 20:00N 36°49' W 076°17'1 2.6
2018-Jan-20 19:30N 36°48' W 076°17'0 0.0
2018-Jan-20 19:00N 36°48' W 076°17'0 0.1
2018-Jan-20 18:30N 36°48' W 076°17'2 4.8
2018-Jan-20 18:01N 36°50' W 076°17'2 2.1
2018-Jan-20 16:58N 36°51' W 076°19'0 0.0
2018-Jan-20 12:38N 36°51' W 076°19'0 0.0
2018-Jan-20 12:26N 36°51' W 076°19'0 0.0
2018-Jan-20 11:58N 36°51' W 076°19'0 0.0
2018-Jan-20 11:31N 36°51' W 076°19'2 3.0
2018-Jan-20 11:00N 36°53' W 076°20'1 1.2
2018-Jan-20 10:30N 36°52' W 076°21'0 0.3
2018-Jan-20 10:00N 36°52' W 076°21'0 0.0
2018-Jan-20 09:30N 36°52' W 076°21'2 3.8
2018-Jan-20 09:00N 36°52' W 076°19'2 4.6
2018-Jan-20 08:30N 36°50' W 076°16'0 0.0
2018-Jan-20 08:01N 36°50' W 076°16'0 0.0
2018-Jan-20 07:31N 36°50' W 076°16'0 0.0
2018-Jan-20 07:00N 36°50' W 076°16'0 0.0
2018-Jan-20 06:31N 36°50' W 076°16'0 0.0
2018-Jan-20 06:00N 36°50' W 076°16'0 0.0
2018-Jan-20 05:31N 36°50' W 076°16'0 0.0
2018-Jan-20 05:00N 36°50' W 076°16'0 0.0
2018-Jan-20 04:30N 36°50' W 076°16'0 0.0
2018-Jan-20 04:00N 36°50' W 076°16'0 0.7
2018-Jan-20 03:30N 36°50' W 076°17'6 9.8
2018-Jan-20 02:56N 36°55' W 076°20'1 0.9
2018-Jan-20 02:20N 36°56' W 076°20'0 1.3
2018-Jan-20 02:00N 36°56' W 076°20'0 0.3
2018-Jan-20 01:26N 36°56' W 076°20'3 1.0
2018-Jan-19 22:36N 36°53' W 076°20'0 5.1
2018-Jan-19 22:30N 36°53' W 076°20'1 0.9
2018-Jan-19 21:49N 36°53' W 076°21'0 0.1
2018-Jan-19 19:50N 36°53' W 076°21'1 2.9
2018-Jan-19 19:31N 36°53' W 076°20'0 0.0
2018-Jan-19 19:01N 36°53' W 076°20'0 0.0
2018-Jan-19 18:30N 36°53' W 076°20'0 0.0
2018-Jan-19 18:00N 36°53' W 076°20'2 3.3
2018-Jan-19 17:21N 36°55' W 076°20'1 2.3
2018-Jan-19 17:00N 36°54' W 076°20'0 0.5
2018-Jan-19 16:27N 36°55' W 076°20'2 3.5
2018-Jan-19 16:00N 36°56' W 076°20'0 0.9
2018-Jan-19 15:30N 36°56' W 076°20'0 0.0
2018-Jan-19 15:01N 36°56' W 076°20'0 0.0
2018-Jan-19 14:30N 36°56' W 076°20'0 0.0
2018-Jan-19 14:00N 36°56' W 076°20'0 0.0
2018-Jan-19 13:30N 36°56' W 076°20'3 5.5
2018-Jan-19 12:58N 36°53' W 076°20'0 0.3
2018-Jan-19 12:23N 36°53' W 076°20'0 0.1
2018-Jan-19 12:00N 36°53' W 076°20'0 0.0
2018-Jan-19 11:30N 36°53' W 076°20'0 0.0
2018-Jan-19 11:00N 36°53' W 076°20'0 0.0
2018-Jan-19 10:30N 36°53' W 076°20'0 0.0
2018-Jan-19 10:00N 36°53' W 076°20'0 0.0
2018-Jan-19 09:30N 36°53' W 076°20'1 2.7
2018-Jan-19 09:01N 36°51' W 076°20'0 0.7
2018-Jan-19 08:31N 36°51' W 076°19'2 3.2
2018-Jan-19 08:01N 36°51' W 076°18'1 2.1
2018-Jan-19 07:30N 36°50' W 076°16'0 0.0
2018-Jan-19 07:00N 36°50' W 076°16'0 0.0
2018-Jan-19 06:30N 36°50' W 076°16'0 0.0
2018-Jan-19 06:00N 36°50' W 076°16'0 0.0
2018-Jan-19 05:30N 36°50' W 076°16'0 0.0
2018-Jan-19 05:00N 36°50' W 076°16'0 0.0
2018-Jan-19 04:30N 36°50' W 076°16'0 0.0
2018-Jan-19 04:00N 36°50' W 076°16'0 0.0
2018-Jan-19 03:30N 36°50' W 076°16'0 0.0
2018-Jan-19 03:00N 36°50' W 076°16'0 0.0
2018-Jan-19 02:31N 36°50' W 076°16'0 0.0
2018-Jan-19 02:00N 36°50' W 076°16'0 0.0
2018-Jan-19 01:30N 36°50' W 076°16'0 0.0
2018-Jan-19 01:00N 36°50' W 076°16'0 0.6
2018-Jan-19 00:31N 36°50' W 076°17'1 1.5
2018-Jan-19 00:00N 36°51' W 076°18'1 2.7
2018-Jan-18 23:31N 36°51' W 076°19'0 0.6
2018-Jan-18 23:00N 36°51' W 076°19'0 0.0
2018-Jan-18 22:14N 36°51' W 076°19'0 0.0
2018-Jan-18 22:01N 36°51' W 076°19'0 0.0
2018-Jan-18 21:30N 36°51' W 076°19'0 0.0
2018-Jan-18 21:00N 36°51' W 076°19'0 0.0
2018-Jan-18 20:31N 36°51' W 076°19'0 0.0
2018-Jan-18 20:00N 36°51' W 076°19'0 0.0
2018-Jan-18 19:31N 36°51' W 076°19'0 0.0
2018-Jan-18 18:52N 36°51' W 076°19'0 0.0
2018-Jan-18 18:30N 36°51' W 076°19'0 0.0
2018-Jan-18 18:00N 36°51' W 076°19'0 0.0
2018-Jan-18 17:30N 36°51' W 076°19'0 0.0
2018-Jan-18 16:50N 36°51' W 076°19'0 0.0
2018-Jan-18 16:30N 36°51' W 076°19'3 5.9
2018-Jan-18 16:01N 36°49' W 076°17'0 0.3
2018-Jan-18 15:30N 36°49' W 076°17'2 4.0
2018-Jan-18 15:00N 36°51' W 076°18'1 1.9
2018-Jan-18 14:31N 36°51' W 076°19'0 0.0
2018-Jan-18 14:01N 36°51' W 076°19'0 0.0
2018-Jan-18 13:30N 36°51' W 076°19'0 0.0
2018-Jan-18 13:00N 36°51' W 076°19'0 0.0
2018-Jan-18 12:31N 36°51' W 076°19'0 0.0
2018-Jan-18 12:00N 36°51' W 076°19'0 0.0
2018-Jan-18 11:30N 36°51' W 076°19'2 3.8
2018-Jan-18 11:00N 36°53' W 076°21'0 0.1
2018-Jan-18 10:30N 36°53' W 076°21'1 2.5
2018-Jan-18 10:00N 36°54' W 076°20'1 2.4
2018-Jan-18 09:29N 36°53' W 076°21'0 0.2
2018-Jan-18 09:01N 36°53' W 076°21'0 0.0
2018-Jan-18 08:30N 36°53' W 076°21'0 0.0
2018-Jan-18 08:00N 36°53' W 076°21'0 0.0
2018-Jan-18 07:30N 36°53' W 076°21'0 0.0
2018-Jan-18 07:00N 36°53' W 076°21'0 0.0
2018-Jan-18 06:30N 36°53' W 076°21'0 0.0
2018-Jan-18 06:01N 36°53' W 076°21'0 0.0
2018-Jan-18 05:30N 36°53' W 076°21'0 0.0
2018-Jan-18 05:01N 36°53' W 076°21'0 0.0
2018-Jan-18 04:30N 36°53' W 076°21'0 0.0
2018-Jan-18 04:01N 36°53' W 076°21'0 0.0
2018-Jan-18 03:31N 36°53' W 076°21'0 0.0
2018-Jan-18 03:00N 36°53' W 076°21'0 0.0
2018-Jan-18 02:30N 36°53' W 076°21'1 1.6
2018-Jan-18 02:00N 36°53' W 076°20'1 1.7
2018-Jan-18 01:30N 36°53' W 076°21'0 0.0
2018-Jan-18 01:01N 36°53' W 076°21'0 0.2
2018-Jan-17 23:59N 36°53' W 076°21'0 0.0
2018-Jan-17 23:57N 36°53' W 076°21'  

Dump ship's entire track history